Abis Bremen — PCJO — position and weather

sailwx.info

Track history (hours):
 
Tides and Currents Weather Stations Pressure Air Temp Water Temp Dewpoint Dewpoint Depression Visibility Wind Speed Wind Dir Waves Ship Positions

Abis Bremen

Last reported at 2020-Apr-06 05:49 UTC. Time now 2020-Apr-06 17:21 UTC.
Position N 60°42' E 017°13'.

Length 90 m; draft 5.2 m.

Type: Ship. MMSI: 246778880.

Date/timePositionNaut miles runAvg speedWind from/ knotsBaromVisibWave heightAir tempDewpointWater temp
2020-Apr-06 05:49N 60°42' E 017°13'46 0.9
2020-Apr-04 04:01N 60°34' E 018°46'9 8.9
2020-Apr-04 03:01N 60°29' E 019°02'5 9.7
2020-Apr-04 02:30N 60°25' E 019°01'14 9.5
2020-Apr-04 01:01N 60°11' E 019°06'24 9.6
2020-Apr-03 22:30N 59°52' E 019°37'265 7.6
2020-Apr-02 11:51N 55°28' E 018°53'32 8.2
2020-Apr-02 08:00N 54°57' E 018°59'4 8.9
2020-Apr-02 07:30N 54°52' E 018°59'19 9.3
2020-Apr-02 05:31N 54°34' E 018°52'12 4.0
2020-Apr-02 02:30N 54°32' E 018°32'0 0.0
2020-Apr-02 02:00N 54°32' E 018°32'0 0.0
2020-Apr-01 23:00N 54°32' E 018°32'0 0.0
2020-Apr-01 22:30N 54°32' E 018°32'0 0.0
2020-Apr-01 21:30N 54°32' E 018°32'0 0.0
2020-Apr-01 21:00N 54°32' E 018°32'0 0.0
2020-Apr-01 18:30N 54°32' E 018°32'0 0.0
2020-Apr-01 18:00N 54°32' E 018°32'0 0.0
2020-Apr-01 17:00N 54°32' E 018°32'0 0.0
2020-Apr-01 16:30N 54°32' E 018°32'0 0.0
2020-Apr-01 10:30N 54°32' E 018°32'0 0.0
2020-Apr-01 08:00N 54°32' E 018°32'0 0.0
2020-Apr-01 07:30N 54°32' E 018°32'0 0.0
2020-Mar-31 22:00N 54°32' E 018°32'0 0.0
2020-Mar-31 21:00N 54°32' E 018°32'0 0.0
2020-Mar-31 20:30N 54°32' E 018°32'6 2.6
2020-Mar-31 18:00N 54°32' E 018°43'1510.2
2020-Mar-31 16:30N 54°44' E 019°00'611.2
2020-Mar-31 16:00N 54°48' E 019°05'85 6.8
2020-Mar-31 03:30N 55°45' E 020°57'9 3.5
2020-Mar-31 01:00N 55°39' E 021°09'0 0.0
2020-Mar-30 23:30N 55°39' E 021°09'0 0.0
2020-Mar-30 21:30N 55°39' E 021°09'0 0.0
2020-Mar-30 21:00N 55°39' E 021°09'0 0.0
2020-Mar-30 17:31N 55°39' E 021°09'0 0.0
2020-Mar-30 16:31N 55°39' E 021°09'2 1.0
2020-Mar-30 14:30N 55°41' E 021°08'4 7.2
2020-Mar-30 14:00N 55°44' E 021°03'17111.0
2020-Mar-29 22:30N 55°28' E 016°02'1010.5
2020-Mar-29 21:30N 55°27' E 015°44'1510.2
2020-Mar-29 20:02N 55°26' E 015°17'5 9.7
2020-Mar-29 19:30N 55°25' E 015°08'62 9.5
2020-Mar-29 12:58N 55°12' E 013°21'510.4
2020-Mar-29 12:30N 55°13' E 013°13'1010.3
2020-Mar-29 11:30N 55°14' E 012°55'21 8.4
2020-Mar-29 09:00N 55°34' E 012°42'111 9.3
2020-Mar-28 21:00N 57°18' E 011°30'14 9.3
2020-Mar-28 19:30N 57°30' E 011°17'67 8.5
2020-Mar-28 11:35N 57°33' E 009°12'110.0
2020-Mar-28 11:28N 57°33' E 009°10'3110.3
2020-Mar-28 08:29N 57°18' E 008°19'2110.7
2020-Mar-28 06:30N 57°07' E 007°46'510.4
2020-Mar-28 06:00N 57°04' E 007°38'29 9.8
2020-Mar-28 03:00N 56°48' E 006°53'11 9.6
2020-Mar-28 01:54N 56°42' E 006°37'9 9.9
2020-Mar-28 01:00N 56°37' E 006°24'2610.5
2020-Mar-27 22:30N 56°22' E 005°45'1111.0
2020-Mar-27 21:30N 56°16' E 005°28'5610.8
2020-Mar-27 16:19N 55°39' E 004°13'9510.9
2020-Mar-27 07:38N 54°30' E 002°19'  
Track history (hours):
 
Tides and Currents Weather Stations Pressure Air Temp Water Temp Dewpoint Dewpoint Depression Visibility Wind Speed Wind Dir Waves Ship Positions

Abis Bremen

Last reported at 2020-Apr-06 05:49 UTC. Time now 2020-Apr-06 17:21 UTC.
Position N 60°42' E 017°13'.

Length 90 m; draft 5.2 m.

Type: Ship. MMSI: 246778880.

Date/timePositionNaut miles runAvg speedWind from/ knotsBaromVisibWave heightAir tempDewpointWater temp
2020-Apr-06 05:49N 60°42' E 017°13'46 0.9
2020-Apr-04 04:01N 60°34' E 018°46'9 8.9
2020-Apr-04 03:01N 60°29' E 019°02'5 9.7
2020-Apr-04 02:30N 60°25' E 019°01'14 9.5
2020-Apr-04 01:01N 60°11' E 019°06'24 9.6
2020-Apr-03 22:30N 59°52' E 019°37'265 7.6
2020-Apr-02 11:51N 55°28' E 018°53'32 8.2
2020-Apr-02 08:00N 54°57' E 018°59'4 8.9
2020-Apr-02 07:30N 54°52' E 018°59'19 9.3
2020-Apr-02 05:31N 54°34' E 018°52'12 4.0
2020-Apr-02 02:30N 54°32' E 018°32'0 0.0
2020-Apr-02 02:00N 54°32' E 018°32'0 0.0
2020-Apr-01 23:00N 54°32' E 018°32'0 0.0
2020-Apr-01 22:30N 54°32' E 018°32'0 0.0
2020-Apr-01 21:30N 54°32' E 018°32'0 0.0
2020-Apr-01 21:00N 54°32' E 018°32'0 0.0
2020-Apr-01 18:30N 54°32' E 018°32'0 0.0
2020-Apr-01 18:00N 54°32' E 018°32'0 0.0
2020-Apr-01 17:00N 54°32' E 018°32'0 0.0
2020-Apr-01 16:30N 54°32' E 018°32'0 0.0
2020-Apr-01 10:30N 54°32' E 018°32'0 0.0
2020-Apr-01 08:00N 54°32' E 018°32'0 0.0
2020-Apr-01 07:30N 54°32' E 018°32'0 0.0
2020-Mar-31 22:00N 54°32' E 018°32'0 0.0
2020-Mar-31 21:00N 54°32' E 018°32'0 0.0
2020-Mar-31 20:30N 54°32' E 018°32'6 2.6
2020-Mar-31 18:00N 54°32' E 018°43'1510.2
2020-Mar-31 16:30N 54°44' E 019°00'611.2
2020-Mar-31 16:00N 54°48' E 019°05'85 6.8
2020-Mar-31 03:30N 55°45' E 020°57'9 3.5
2020-Mar-31 01:00N 55°39' E 021°09'0 0.0
2020-Mar-30 23:30N 55°39' E 021°09'0 0.0
2020-Mar-30 21:30N 55°39' E 021°09'0 0.0
2020-Mar-30 21:00N 55°39' E 021°09'0 0.0
2020-Mar-30 17:31N 55°39' E 021°09'0 0.0
2020-Mar-30 16:31N 55°39' E 021°09'2 1.0
2020-Mar-30 14:30N 55°41' E 021°08'4 7.2
2020-Mar-30 14:00N 55°44' E 021°03'17111.0
2020-Mar-29 22:30N 55°28' E 016°02'1010.5
2020-Mar-29 21:30N 55°27' E 015°44'1510.2
2020-Mar-29 20:02N 55°26' E 015°17'5 9.7
2020-Mar-29 19:30N 55°25' E 015°08'62 9.5
2020-Mar-29 12:58N 55°12' E 013°21'510.4
2020-Mar-29 12:30N 55°13' E 013°13'1010.3
2020-Mar-29 11:30N 55°14' E 012°55'21 8.4
2020-Mar-29 09:00N 55°34' E 012°42'111 9.3
2020-Mar-28 21:00N 57°18' E 011°30'14 9.3
2020-Mar-28 19:30N 57°30' E 011°17'67 8.5
2020-Mar-28 11:35N 57°33' E 009°12'110.0
2020-Mar-28 11:28N 57°33' E 009°10'3110.3
2020-Mar-28 08:29N 57°18' E 008°19'2110.7
2020-Mar-28 06:30N 57°07' E 007°46'510.4
2020-Mar-28 06:00N 57°04' E 007°38'29 9.8
2020-Mar-28 03:00N 56°48' E 006°53'11 9.6
2020-Mar-28 01:54N 56°42' E 006°37'9 9.9
2020-Mar-28 01:00N 56°37' E 006°24'2610.5
2020-Mar-27 22:30N 56°22' E 005°45'1111.0
2020-Mar-27 21:30N 56°16' E 005°28'5610.8
2020-Mar-27 16:19N 55°39' E 004°13'9510.9
2020-Mar-27 07:38N 54°30' E 002°19'  

Dump ship's entire track history